createdAt,value
2024-02-08T00:00:42.206Z,54.73
2024-02-08T00:01:42.258Z,53.29
2024-02-08T00:02:42.225Z,55.37
2024-02-08T00:03:42.251Z,54.19
2024-02-08T00:04:42.304Z,53.75
2024-02-08T00:05:42.227Z,54.75
2024-02-08T00:06:42.302Z,53.01
2024-02-08T00:07:42.240Z,53.80
2024-02-08T00:08:42.254Z,54.59
2024-02-08T00:09:42.246Z,53.48
2024-02-08T00:10:42.284Z,52.85
2024-02-08T00:11:42.243Z,52.04
2024-02-08T00:12:42.224Z,53.62
2024-02-08T00:13:42.346Z,53.99
2024-02-08T00:14:42.228Z,54.72
2024-02-08T00:15:42.254Z,52.58
2024-02-08T00:16:42.326Z,53.40
2024-02-08T00:17:42.333Z,53.74
2024-02-08T00:18:42.402Z,53.04
2024-02-08T00:19:42.305Z,51.41
2024-02-08T00:20:42.276Z,53.34
2024-02-08T00:21:42.457Z,52.71
2024-02-08T00:22:42.318Z,52.65
2024-02-08T00:23:42.251Z,51.85
2024-02-08T00:24:42.272Z,52.34
2024-02-08T00:25:42.270Z,53.45
2024-02-08T00:26:42.285Z,52.00
2024-02-08T00:27:42.251Z,54.19
2024-02-08T00:28:42.282Z,54.11
2024-02-08T00:29:44.586Z,51.53
2024-02-08T00:30:42.336Z,51.97
2024-02-08T00:31:42.357Z,52.88
2024-02-08T00:32:42.384Z,51.72
2024-02-08T00:33:42.443Z,51.71
2024-02-08T00:34:42.434Z,50.83
2024-02-08T00:35:42.518Z,52.41
2024-02-08T00:36:42.375Z,50.97
2024-02-08T00:37:42.412Z,51.51
2024-02-08T00:38:42.408Z,52.70
2024-02-08T00:39:42.417Z,52.64
2024-02-08T00:40:42.472Z,51.97
2024-02-08T00:41:42.450Z,53.13
2024-02-08T00:42:42.431Z,54.03
2024-02-08T00:43:42.464Z,51.22
2024-02-08T00:44:42.481Z,52.03
2024-02-08T00:45:42.449Z,50.86
2024-02-08T00:46:42.550Z,53.95
2024-02-08T00:47:42.515Z,51.03
2024-02-08T00:48:42.536Z,52.30
2024-02-08T00:49:42.594Z,51.70
2024-02-08T00:50:42.513Z,53.64
2024-02-08T00:51:42.531Z,50.44
2024-02-08T00:52:42.608Z,50.78
2024-02-08T00:53:42.834Z,51.84
2024-02-08T00:54:42.541Z,51.86
2024-02-08T00:55:42.662Z,50.29
2024-02-08T00:56:42.554Z,53.72
2024-02-08T00:57:42.584Z,52.68
2024-02-08T00:58:42.612Z,51.21
2024-02-08T00:59:42.628Z,50.03
2024-02-08T01:00:42.620Z,52.06
2024-02-08T01:01:42.709Z,52.67
2024-02-08T01:02:42.615Z,52.36
2024-02-08T01:03:42.677Z,52.45
2024-02-08T01:04:42.678Z,51.32
2024-02-08T01:05:42.698Z,51.34
2024-02-08T01:06:42.676Z,53.35
2024-02-08T01:07:42.692Z,51.82
2024-02-08T01:08:42.693Z,52.13
2024-02-08T01:09:42.676Z,52.42
2024-02-08T01:10:42.716Z,50.59
2024-02-08T01:11:42.672Z,52.66
2024-02-08T01:12:42.724Z,52.43
2024-02-08T01:13:42.706Z,52.42
2024-02-08T01:14:42.673Z,52.25
2024-02-08T01:15:42.677Z,51.72
2024-02-08T01:16:42.729Z,51.31
2024-02-08T01:17:42.754Z,52.78
2024-02-08T01:18:43.046Z,52.22
2024-02-08T01:19:42.781Z,52.16
2024-02-08T01:20:42.743Z,51.72
2024-02-08T01:21:42.746Z,51.55
2024-02-08T01:22:42.776Z,54.59
2024-02-08T01:23:42.772Z,52.00
2024-02-08T01:24:42.768Z,50.58
2024-02-08T01:25:42.882Z,53.06
2024-02-08T01:26:42.771Z,52.45
2024-02-08T01:27:42.770Z,52.89
2024-02-08T01:28:42.877Z,52.46
2024-02-08T01:29:42.783Z,53.15
2024-02-08T01:30:42.832Z,51.79
2024-02-08T01:31:42.914Z,51.36
2024-02-08T01:32:42.903Z,51.04
2024-02-08T01:33:42.901Z,51.29
2024-02-08T01:34:43.035Z,51.12
2024-02-08T01:35:42.846Z,52.96
2024-02-08T01:36:42.882Z,52.93
2024-02-08T01:37:42.956Z,52.93
2024-02-08T01:38:42.905Z,54.27
2024-02-08T01:39:42.946Z,50.95
2024-02-08T01:40:42.928Z,52.79
2024-02-08T01:41:42.913Z,51.49
2024-02-08T01:42:42.923Z,52.40
2024-02-08T01:43:43.008Z,53.74
2024-02-08T01:44:42.933Z,54.00
2024-02-08T01:45:42.914Z,52.11
2024-02-08T01:46:42.984Z,53.01
2024-02-08T01:47:43.039Z,53.74
2024-02-08T01:48:43.012Z,52.56
2024-02-08T01:49:43.008Z,55.54
2024-02-08T01:50:43.047Z,52.03
2024-02-08T01:51:43.017Z,52.39
2024-02-08T01:52:43.062Z,51.55
2024-02-08T01:53:43.033Z,52.98
2024-02-08T01:54:43.060Z,53.53
2024-02-08T01:55:43.078Z,50.37
2024-02-08T01:56:43.183Z,52.24
2024-02-08T01:57:43.086Z,51.61
2024-02-08T01:58:43.145Z,55.13
2024-02-08T01:59:43.128Z,52.58
2024-02-08T02:00:43.162Z,50.61
2024-02-08T02:01:43.171Z,53.77
2024-02-08T02:02:43.167Z,51.51
2024-02-08T02:03:43.247Z,52.61
2024-02-08T02:04:43.248Z,53.56
2024-02-08T02:05:43.207Z,55.51
2024-02-08T02:06:43.198Z,54.39
2024-02-08T02:07:43.269Z,54.49
2024-02-08T02:08:43.258Z,52.92
2024-02-08T02:09:43.282Z,52.87
2024-02-08T02:10:43.273Z,51.39
2024-02-08T02:11:43.374Z,51.63
2024-02-08T02:12:43.270Z,51.42
2024-02-08T02:13:43.335Z,52.58
2024-02-08T02:14:43.343Z,53.45
2024-02-08T02:15:43.318Z,54.03
2024-02-08T02:16:43.413Z,50.00
2024-02-08T02:17:43.421Z,51.76
2024-02-08T02:18:43.414Z,51.15
2024-02-08T02:19:43.401Z,54.19
2024-02-08T02:20:43.399Z,50.90
2024-02-08T02:21:43.412Z,52.99
2024-02-08T02:22:43.697Z,50.84
2024-02-08T02:23:43.402Z,52.50
2024-02-08T02:24:43.446Z,52.97
2024-02-08T02:25:43.445Z,53.18
2024-02-08T02:26:43.444Z,51.74
2024-02-08T02:27:43.520Z,50.93
2024-02-08T02:28:43.494Z,50.00
2024-02-08T02:29:43.464Z,51.98
2024-02-08T02:30:43.475Z,51.34
2024-02-08T02:31:43.543Z,53.81
2024-02-08T02:32:43.537Z,51.18
2024-02-08T02:33:43.676Z,54.47
2024-02-08T02:35:43.542Z,53.45
2024-02-08T02:36:43.581Z,53.56
2024-02-08T02:37:43.577Z,56.12
2024-02-08T02:38:43.566Z,52.62
2024-02-08T02:39:43.585Z,53.41
2024-02-08T02:40:43.637Z,54.51
2024-02-08T02:41:43.569Z,53.09
2024-02-08T02:42:43.593Z,52.39
2024-02-08T02:43:43.670Z,52.73
2024-02-08T02:44:43.611Z,53.38
2024-02-08T02:45:43.611Z,51.60
2024-02-08T02:46:43.668Z,51.17
2024-02-08T02:47:43.726Z,53.37
2024-02-08T02:48:43.713Z,51.87
2024-02-08T02:49:43.667Z,51.94
2024-02-08T02:50:44.105Z,52.04
2024-02-08T02:51:43.656Z,51.71
2024-02-08T02:52:43.761Z,55.69
2024-02-08T02:53:43.785Z,52.13
2024-02-08T02:54:43.744Z,52.12
2024-02-08T02:55:43.731Z,53.01
2024-02-08T02:56:43.759Z,52.03
2024-02-08T02:57:43.763Z,52.73
2024-02-08T02:58:43.790Z,53.72
2024-02-08T02:59:43.786Z,53.66
2024-02-08T03:00:43.803Z,53.65
2024-02-08T03:01:43.938Z,54.02
2024-02-08T03:02:43.813Z,53.25
2024-02-08T03:03:43.845Z,52.76
2024-02-08T03:04:43.831Z,52.30
2024-02-08T03:05:43.813Z,53.80
2024-02-08T03:06:43.825Z,51.93
2024-02-08T03:07:43.996Z,51.73
2024-02-08T03:08:44.196Z,51.96
2024-02-08T03:09:43.843Z,53.71
2024-02-08T03:10:44.005Z,53.17
2024-02-08T03:11:43.907Z,51.88
2024-02-08T03:12:43.921Z,52.32
2024-02-08T03:13:44.351Z,52.85
2024-02-08T03:14:43.910Z,53.56
2024-02-08T03:15:43.955Z,50.92
2024-02-08T03:16:44.000Z,52.14
2024-02-08T03:17:44.051Z,52.46
2024-02-08T03:18:44.006Z,52.53
2024-02-08T03:19:43.980Z,53.79
2024-02-08T03:20:43.984Z,52.58
2024-02-08T03:21:44.024Z,51.58
2024-02-08T03:22:44.057Z,53.00
2024-02-08T03:23:44.380Z,51.05
2024-02-08T03:24:44.142Z,51.77
2024-02-08T03:25:44.123Z,54.15
2024-02-08T03:26:44.090Z,54.16
2024-02-08T03:27:44.109Z,53.27
2024-02-08T03:28:44.203Z,52.92
2024-02-08T03:29:44.148Z,54.58
2024-02-08T03:30:44.168Z,53.92
2024-02-08T03:31:44.172Z,52.39
2024-02-08T03:32:44.218Z,54.99
2024-02-08T03:33:44.441Z,52.84
2024-02-08T03:34:44.279Z,52.26
2024-02-08T03:35:44.245Z,51.41
2024-02-08T03:36:44.229Z,52.51
2024-02-08T03:37:44.279Z,54.19
2024-02-08T03:38:44.295Z,52.96
2024-02-08T03:39:44.302Z,51.26
2024-02-08T03:40:44.428Z,52.63
2024-02-08T03:41:44.339Z,53.10
2024-02-08T03:42:44.362Z,50.77
2024-02-08T03:43:44.361Z,53.34
2024-02-08T03:44:44.330Z,52.87
2024-02-08T03:45:44.337Z,52.56
2024-02-08T03:46:44.425Z,53.38
2024-02-08T03:47:44.461Z,52.07
2024-02-08T03:48:44.526Z,52.97
2024-02-08T03:49:44.485Z,54.17
2024-02-08T03:50:44.434Z,52.15
2024-02-08T03:51:44.419Z,52.95
2024-02-08T03:52:44.470Z,53.57
2024-02-08T03:53:44.465Z,52.57
2024-02-08T03:54:44.482Z,51.05
2024-02-08T03:55:44.518Z,53.66
2024-02-08T03:56:44.500Z,51.83
2024-02-08T03:57:44.523Z,53.26
2024-02-08T03:58:44.580Z,51.91
2024-02-08T03:59:44.564Z,56.04
2024-02-08T04:00:44.579Z,53.17
2024-02-08T04:01:44.852Z,53.73
2024-02-08T04:02:44.675Z,52.32
2024-02-08T04:03:44.680Z,51.49
2024-02-08T04:04:44.685Z,55.62
2024-02-08T04:05:44.686Z,53.02
2024-02-08T04:06:44.666Z,52.76
2024-02-08T04:07:44.648Z,53.90
2024-02-08T04:08:44.922Z,54.70
2024-02-08T04:09:44.715Z,53.50
2024-02-08T04:10:44.752Z,52.20
2024-02-08T04:11:44.761Z,53.28
2024-02-08T04:12:44.761Z,52.35
2024-02-08T04:13:44.929Z,53.18
2024-02-08T04:14:44.751Z,51.50
2024-02-08T04:15:44.801Z,53.56
2024-02-08T04:16:44.827Z,54.14
2024-02-08T04:17:44.847Z,53.84
2024-02-08T04:18:44.897Z,53.22
2024-02-08T04:19:44.892Z,53.51
2024-02-08T04:20:44.890Z,52.49
2024-02-08T04:21:44.921Z,50.75
2024-02-08T04:22:44.923Z,54.12
2024-02-08T04:23:44.943Z,53.47
2024-02-08T04:24:44.936Z,52.44
2024-02-08T04:25:45.012Z,52.48
2024-02-08T04:26:44.945Z,52.69
2024-02-08T04:27:44.990Z,51.88
2024-02-08T04:28:45.063Z,51.32
2024-02-08T04:29:45.010Z,53.37
2024-02-08T04:30:44.995Z,53.15
2024-02-08T04:31:45.011Z,52.94
2024-02-08T04:32:45.125Z,53.04
2024-02-08T04:33:45.116Z,50.51
2024-02-08T04:34:45.105Z,53.55
2024-02-08T04:35:45.053Z,50.02
2024-02-08T04:36:45.091Z,53.46
2024-02-08T04:37:45.148Z,52.57
2024-02-08T04:38:45.131Z,52.97
2024-02-08T04:39:45.154Z,51.88
2024-02-08T04:40:45.176Z,53.21
2024-02-08T04:41:52.433Z,50.00
2024-02-08T04:42:52.414Z,50.00
2024-02-08T04:43:52.550Z,50.00
2024-02-08T04:44:52.420Z,50.00
2024-02-08T04:45:52.433Z,50.00
2024-02-08T04:46:52.471Z,52.31
2024-02-08T04:47:52.508Z,52.66
2024-02-08T04:48:52.514Z,51.11
2024-02-08T04:49:52.465Z,52.17
2024-02-08T04:50:52.418Z,50.49
2024-02-08T04:51:52.472Z,51.56
2024-02-08T04:52:52.489Z,51.13
2024-02-08T04:53:52.449Z,51.97
2024-02-08T04:54:52.450Z,50.65
2024-02-08T04:55:52.448Z,54.20
2024-02-08T04:56:52.426Z,52.25
2024-02-08T04:57:53.312Z,50.92
2024-02-08T04:59:55.236Z,51.42
2024-02-08T05:00:52.507Z,52.21
2024-02-08T05:01:52.448Z,52.40
2024-02-08T05:02:52.453Z,52.60
2024-02-08T05:03:52.464Z,53.56
2024-02-08T05:04:52.658Z,51.61
2024-02-08T05:05:52.485Z,52.66
2024-02-08T05:06:52.562Z,51.66
2024-02-08T05:07:52.472Z,50.28
2024-02-08T05:08:52.480Z,51.00
2024-02-08T05:09:52.544Z,53.51
2024-02-08T05:10:52.508Z,51.14
2024-02-08T05:11:52.464Z,52.50
2024-02-08T05:12:52.467Z,53.94
2024-02-08T05:13:52.456Z,53.62
2024-02-08T05:14:52.517Z,52.27
2024-02-08T05:15:52.476Z,54.74
2024-02-08T05:16:52.478Z,54.60
2024-02-08T05:17:52.526Z,52.49
2024-02-08T05:18:52.558Z,51.62
2024-02-08T05:19:52.541Z,52.57
2024-02-08T05:20:52.460Z,53.63
2024-02-08T05:21:52.579Z,50.72
2024-02-08T05:22:52.484Z,52.62
2024-02-08T05:23:52.578Z,54.25
2024-02-08T05:24:52.531Z,51.35
2024-02-08T05:25:52.493Z,52.41
2024-02-08T05:26:52.470Z,52.18
2024-02-08T05:27:52.512Z,53.42
2024-02-08T05:28:52.495Z,52.92
2024-02-08T05:29:52.530Z,52.22
2024-02-08T05:30:52.512Z,52.12
2024-02-08T05:31:52.546Z,50.46
2024-02-08T05:32:52.507Z,51.99
2024-02-08T05:33:52.546Z,51.42
2024-02-08T05:34:52.620Z,50.21
2024-02-08T05:35:52.475Z,52.49
2024-02-08T05:36:52.596Z,50.83
2024-02-08T05:37:52.504Z,52.04
2024-02-08T05:38:52.510Z,50.81
2024-02-08T05:39:52.574Z,51.21
2024-02-08T05:40:52.506Z,53.13
2024-02-08T05:41:52.525Z,54.73
2024-02-08T05:42:52.543Z,53.88
2024-02-08T05:43:52.529Z,52.25
2024-02-08T05:44:52.495Z,52.13
2024-02-08T05:45:52.655Z,52.34
2024-02-08T05:46:52.514Z,54.85
2024-02-08T05:47:52.617Z,53.77
2024-02-08T05:48:52.958Z,54.17
2024-02-08T05:49:52.669Z,52.38
2024-02-08T05:50:52.529Z,51.41
2024-02-08T05:51:52.644Z,52.95
2024-02-08T05:52:52.553Z,55.42
2024-02-08T05:53:52.553Z,52.61
2024-02-08T05:54:52.575Z,52.84
2024-02-08T05:55:52.515Z,51.72
2024-02-08T05:56:54.481Z,51.72
2024-02-08T05:57:52.589Z,52.33
2024-02-08T05:58:52.522Z,51.62
2024-02-08T05:59:52.528Z,53.14
2024-02-08T06:00:52.626Z,51.46
2024-02-08T06:01:52.604Z,53.14
2024-02-08T06:02:52.568Z,53.86
2024-02-08T06:03:52.577Z,53.51
2024-02-08T06:04:53.377Z,51.68
2024-02-08T06:05:52.558Z,51.25
2024-02-08T06:06:52.573Z,51.95
2024-02-08T06:07:52.606Z,53.32
2024-02-08T06:08:52.556Z,51.54
2024-02-08T06:09:52.595Z,54.39
2024-02-08T06:10:52.540Z,51.78
2024-02-08T06:11:52.544Z,51.91
2024-02-08T06:12:52.606Z,53.08
2024-02-08T06:13:52.583Z,53.29
2024-02-08T06:14:52.582Z,50.13
2024-02-08T06:15:52.595Z,54.61
2024-02-08T06:16:52.572Z,54.96
2024-02-08T06:17:52.631Z,54.17
2024-02-08T06:18:52.646Z,52.15
2024-02-08T06:19:52.650Z,50.95
2024-02-08T06:20:52.588Z,51.22
2024-02-08T06:21:52.595Z,54.35
2024-02-08T06:22:52.568Z,53.11
2024-02-08T06:23:52.618Z,52.01
2024-02-08T06:24:52.611Z,51.47
2024-02-08T06:25:52.619Z,51.87
2024-02-08T06:26:52.576Z,53.15
2024-02-08T06:27:52.646Z,53.27
2024-02-08T06:28:52.580Z,53.16
2024-02-08T06:29:52.618Z,52.86
2024-02-08T06:30:52.686Z,53.05
2024-02-08T06:31:52.574Z,52.46
2024-02-08T06:32:52.710Z,53.00
2024-02-08T06:33:52.676Z,54.36
2024-02-08T06:34:52.651Z,53.66
2024-02-08T06:35:52.581Z,53.87
2024-02-08T06:36:52.646Z,52.86
2024-02-08T06:37:52.610Z,55.61
2024-02-08T06:38:52.989Z,54.61
2024-02-08T06:39:52.596Z,51.56
2024-02-08T06:40:52.907Z,55.24
2024-02-08T06:41:52.639Z,53.42
2024-02-08T06:42:52.692Z,53.03
2024-02-08T06:43:52.612Z,54.47
2024-02-08T06:44:53.060Z,51.67
2024-02-08T06:45:52.859Z,52.97
2024-02-08T06:46:52.671Z,52.07
2024-02-08T06:47:52.765Z,51.45
2024-02-08T06:48:52.750Z,51.36
2024-02-08T06:49:52.805Z,50.00
2024-02-08T06:50:52.748Z,52.64
2024-02-08T06:51:52.787Z,52.93
2024-02-08T06:52:52.730Z,59.66
2024-02-08T06:53:52.761Z,59.60
2024-02-08T06:54:52.780Z,59.30
2024-02-08T06:55:52.782Z,62.26
2024-02-08T06:56:52.810Z,62.97
2024-02-08T06:57:52.930Z,64.44
2024-02-08T06:58:52.933Z,68.56
2024-02-08T06:59:55.632Z,68.59
2024-02-08T07:00:53.127Z,72.89
2024-02-08T07:01:53.175Z,73.32
2024-02-08T07:02:53.043Z,70.47
2024-02-08T07:03:53.090Z,75.30
2024-02-08T07:04:53.092Z,74.96
2024-02-08T07:05:53.053Z,77.29
2024-02-08T07:06:53.139Z,83.16
2024-02-08T07:07:53.108Z,87.76
2024-02-08T07:08:53.078Z,91.12
2024-02-08T07:09:53.075Z,94.97
2024-02-08T07:10:53.046Z,97.55
2024-02-08T07:11:53.054Z,101.82
2024-02-08T07:12:53.085Z,106.33
2024-02-08T07:13:53.030Z,112.30
2024-02-08T07:14:53.116Z,113.45
2024-02-08T07:15:53.043Z,115.65
2024-02-08T07:16:53.090Z,112.72
2024-02-08T07:17:53.118Z,119.03
2024-02-08T07:18:58.485Z,127.70
2024-02-08T07:19:54.193Z,127.92
2024-02-08T07:20:53.061Z,129.20
2024-02-08T07:21:53.134Z,132.37
2024-02-08T07:22:53.083Z,138.42
2024-02-08T07:23:53.094Z,149.81
2024-02-08T07:24:53.112Z,153.54
2024-02-08T07:25:53.057Z,155.61
2024-02-08T07:26:53.095Z,153.34
2024-02-08T07:27:53.113Z,147.82
2024-02-08T07:28:53.061Z,145.07
2024-02-08T07:29:53.596Z,145.74
2024-02-08T07:30:56.033Z,141.36
2024-02-08T07:31:53.103Z,140.96
2024-02-08T07:32:53.110Z,135.56
2024-02-08T07:33:53.221Z,133.82
2024-02-08T07:34:53.189Z,133.20
2024-02-08T07:35:53.110Z,129.44
2024-02-08T07:36:53.100Z,124.01
2024-02-08T07:37:53.106Z,124.31
2024-02-08T07:38:53.088Z,121.21
2024-02-08T07:39:53.104Z,118.18
2024-02-08T07:40:53.097Z,109.44
2024-02-08T07:41:53.114Z,104.14
2024-02-08T07:42:53.165Z,106.34
2024-02-08T07:43:53.079Z,105.08
2024-02-08T07:44:53.592Z,105.22
2024-02-08T07:45:53.562Z,106.21
2024-02-08T07:46:53.064Z,109.38
2024-02-08T07:47:53.106Z,109.25
2024-02-08T07:48:53.125Z,111.43
2024-02-08T07:49:53.650Z,113.32
2024-02-08T07:50:53.126Z,116.48
2024-02-08T07:51:53.207Z,119.65
2024-02-08T07:52:53.226Z,121.40
2024-02-08T07:53:53.818Z,124.55
2024-02-08T07:54:53.622Z,171.63
2024-02-08T07:55:53.441Z,202.25
2024-02-08T07:56:53.528Z,199.50
2024-02-08T07:57:54.649Z,198.64
2024-02-08T07:58:53.596Z,198.00
2024-02-08T07:59:54.071Z,199.73
2024-02-08T08:00:53.794Z,198.07
2024-02-08T08:01:54.016Z,197.30
2024-02-08T08:02:53.862Z,194.22
2024-02-08T08:03:54.032Z,192.75
2024-02-08T08:04:55.001Z,190.69
2024-02-08T08:05:54.126Z,190.75
2024-02-08T08:06:54.290Z,194.21
2024-02-08T08:07:54.168Z,194.83
2024-02-08T08:08:54.240Z,197.23
2024-02-08T08:09:54.303Z,197.79
2024-02-08T08:10:54.353Z,199.66
2024-02-08T08:11:54.695Z,197.45
2024-02-08T08:12:54.514Z,200.00
2024-02-08T08:13:54.503Z,200.00
2024-02-08T08:14:54.600Z,199.45
2024-02-08T08:15:54.662Z,200.79
2024-02-08T08:16:54.692Z,198.00
2024-02-08T08:17:54.790Z,199.36
2024-02-08T08:18:54.861Z,199.46
2024-02-08T08:19:54.966Z,200.00
2024-02-08T08:20:54.891Z,197.90
2024-02-08T08:21:54.999Z,200.02
2024-02-08T08:22:54.984Z,198.30
2024-02-08T08:23:55.040Z,200.00
2024-02-08T08:24:55.117Z,199.02
2024-02-08T08:25:55.197Z,200.00
2024-02-08T08:26:55.166Z,199.54
2024-02-08T08:27:55.247Z,198.80
2024-02-08T08:28:55.260Z,200.00
2024-02-08T08:29:55.297Z,198.87
2024-02-08T08:30:55.662Z,198.20
2024-02-08T08:31:55.354Z,198.75
2024-02-08T08:32:55.403Z,198.57
2024-02-08T08:33:55.534Z,199.45
2024-02-08T08:34:55.662Z,198.82
2024-02-08T08:35:56.262Z,196.35
2024-02-08T08:36:55.647Z,193.62
2024-02-08T08:37:55.718Z,190.29
2024-02-08T08:38:55.800Z,189.62
2024-02-08T08:39:55.939Z,186.77
2024-02-08T08:40:55.940Z,182.59
2024-02-08T08:41:55.991Z,179.60
2024-02-08T08:42:56.293Z,177.64
2024-02-08T08:43:56.161Z,175.48
2024-02-08T08:44:56.177Z,172.96
2024-02-08T08:45:56.401Z,173.59
2024-02-08T08:46:56.264Z,173.08
2024-02-08T08:47:56.368Z,173.32
2024-02-08T08:48:57.194Z,173.38
2024-02-08T08:49:56.820Z,172.41
2024-02-08T08:50:56.586Z,168.77
2024-02-08T08:51:56.326Z,163.91
2024-02-08T08:52:56.293Z,160.43
2024-02-08T08:53:56.342Z,159.03
2024-02-08T08:54:56.391Z,157.99
2024-02-08T08:55:56.325Z,159.24
2024-02-08T08:56:56.356Z,158.83
2024-02-08T08:57:57.135Z,157.18
2024-02-08T08:58:56.469Z,152.85
2024-02-08T08:59:56.632Z,145.97
2024-02-08T09:00:56.703Z,142.02
2024-02-08T09:01:56.832Z,137.82
2024-02-08T09:02:56.770Z,131.30
2024-02-08T09:03:56.809Z,126.74
2024-02-08T09:04:57.256Z,124.96
2024-02-08T09:05:56.750Z,119.73
2024-02-08T09:06:56.876Z,114.84
2024-02-08T09:07:56.831Z,113.01
2024-02-08T09:08:56.876Z,110.61
2024-02-08T09:09:57.150Z,105.17
2024-02-08T09:10:56.831Z,102.03
2024-02-08T09:11:56.859Z,100.77
2024-02-08T09:12:56.972Z,98.13
2024-02-08T09:13:56.970Z,95.31
2024-02-08T09:14:57.135Z,91.73
2024-02-08T09:15:57.495Z,90.60
2024-02-08T09:16:56.988Z,87.44
2024-02-08T09:17:57.069Z,84.06
2024-02-08T09:18:57.118Z,81.02
2024-02-08T09:19:57.161Z,78.54
2024-02-08T09:20:57.041Z,80.07
2024-02-08T09:21:57.069Z,77.59
2024-02-08T09:22:57.106Z,77.31
2024-02-08T09:23:57.114Z,75.33
2024-02-08T09:24:57.134Z,71.56
2024-02-08T09:25:57.182Z,68.80
2024-02-08T09:26:57.152Z,69.25
2024-02-08T09:27:57.485Z,66.59
2024-02-08T09:28:57.160Z,67.39
2024-02-08T09:29:58.046Z,65.53
2024-02-08T09:30:57.209Z,66.16
2024-02-08T09:31:57.185Z,64.46
2024-02-08T09:32:57.226Z,63.45
2024-02-08T09:33:57.218Z,62.28
2024-02-08T09:34:57.829Z,60.89
2024-02-08T09:35:57.189Z,59.44
2024-02-08T09:36:57.229Z,58.01
2024-02-08T09:37:57.322Z,58.93
2024-02-08T09:38:57.243Z,61.40
2024-02-08T09:39:57.339Z,59.11
2024-02-08T09:40:57.349Z,59.48
2024-02-08T09:41:57.271Z,58.52
2024-02-08T09:42:57.324Z,61.53
2024-02-08T09:43:57.265Z,60.31
2024-02-08T09:44:57.793Z,58.13
2024-02-08T09:45:57.375Z,56.48
2024-02-08T09:46:57.379Z,53.44
2024-02-08T09:47:57.435Z,52.07
2024-02-08T09:48:57.485Z,50.15
2024-02-08T09:49:57.792Z,52.48
2024-02-08T09:50:57.491Z,50.84
2024-02-08T09:51:57.801Z,50.90
2024-02-08T09:53:00.791Z,52.34
2024-02-08T09:53:57.616Z,49.95
2024-02-08T09:54:57.701Z,45.97
2024-02-08T09:55:57.721Z,44.00
2024-02-08T09:56:57.605Z,42.88
2024-02-08T09:57:57.662Z,41.13
2024-02-08T09:59:08.748Z,50.36
2024-02-08T09:59:58.617Z,50.36
2024-02-08T10:00:57.875Z,46.95
2024-02-08T10:01:57.787Z,45.26
2024-02-08T10:02:57.736Z,43.63
2024-02-08T10:04:00.431Z,42.08
2024-02-08T10:04:58.411Z,41.68
2024-02-08T10:05:57.621Z,39.55
2024-02-08T10:06:58.241Z,38.45
2024-02-08T10:07:57.642Z,35.36
2024-02-08T10:08:57.664Z,35.44
2024-02-08T10:09:58.191Z,47.77
2024-02-08T10:11:01.265Z,50.08
2024-02-08T10:11:58.656Z,49.86
2024-02-08T10:12:57.687Z,49.67
2024-02-08T10:13:57.868Z,47.70
2024-02-08T10:14:58.178Z,47.08
2024-02-08T10:15:58.038Z,48.48
2024-02-08T10:16:57.642Z,51.39
2024-02-08T10:17:57.717Z,52.01
2024-02-08T10:18:57.783Z,50.00
2024-02-08T10:19:58.315Z,51.30
2024-02-08T10:20:57.788Z,50.93
2024-02-08T10:21:57.939Z,50.55
2024-02-08T10:22:57.912Z,51.44
2024-02-08T10:23:57.993Z,50.75
2024-02-08T10:24:58.183Z,50.14
2024-02-08T10:25:58.007Z,50.81
2024-02-08T10:26:58.074Z,50.98
2024-02-08T10:27:58.155Z,51.08
2024-02-08T10:28:58.143Z,51.36
2024-02-08T10:29:58.631Z,51.08
2024-02-08T10:30:58.836Z,51.02
2024-02-08T10:31:58.280Z,50.44
2024-02-08T10:32:58.417Z,50.17
2024-02-08T10:33:58.495Z,52.06
2024-02-08T10:34:58.711Z,51.02
2024-02-08T10:35:58.467Z,51.20
2024-02-08T10:36:58.497Z,51.75
2024-02-08T10:37:58.515Z,51.92
2024-02-08T10:38:59.400Z,51.47
2024-02-08T10:39:58.583Z,51.26
2024-02-08T10:40:58.551Z,52.64
2024-02-08T10:41:59.117Z,52.90
2024-02-08T10:42:58.631Z,52.57
2024-02-08T10:43:58.650Z,53.08
2024-02-08T10:44:58.627Z,51.97
2024-02-08T10:45:58.676Z,51.72
2024-02-08T10:46:58.660Z,50.81
2024-02-08T10:47:58.647Z,51.46
2024-02-08T10:48:58.790Z,50.68
2024-02-08T10:49:59.228Z,52.24
2024-02-08T10:50:58.655Z,52.96
2024-02-08T10:51:58.729Z,53.04
2024-02-08T10:52:58.754Z,52.29
2024-02-08T10:53:58.881Z,51.71
2024-02-08T10:54:59.303Z,51.26
2024-02-08T10:55:58.761Z,51.24
2024-02-08T10:56:58.817Z,52.08
2024-02-08T10:57:58.885Z,52.57
2024-02-08T10:58:58.834Z,52.09
2024-02-08T10:59:59.203Z,50.91
2024-02-08T11:00:58.940Z,52.79
2024-02-08T11:01:58.933Z,51.12
2024-02-08T11:02:58.920Z,50.05
2024-02-08T11:03:59.114Z,51.30
2024-02-08T11:04:59.372Z,50.58
2024-02-08T11:05:58.994Z,52.14
2024-02-08T11:06:59.078Z,50.20
2024-02-08T11:07:59.003Z,51.00
2024-02-08T11:08:58.996Z,51.79
2024-02-08T11:09:59.268Z,52.80
2024-02-08T11:10:59.099Z,51.73
2024-02-08T11:11:59.141Z,51.06
2024-02-08T11:12:59.255Z,50.27
2024-02-08T11:13:59.211Z,51.73
2024-02-08T11:14:59.196Z,52.03
2024-02-08T11:15:59.300Z,51.03
2024-02-08T11:16:59.404Z,50.99
2024-02-08T11:17:59.377Z,52.80
2024-02-08T11:18:59.469Z,52.03
2024-02-08T11:20:00.210Z,50.70
2024-02-08T11:20:59.391Z,51.45
2024-02-08T11:21:59.491Z,52.27
2024-02-08T11:22:59.499Z,51.64
2024-02-08T11:23:59.562Z,50.00
2024-02-08T11:24:59.976Z,51.43
2024-02-08T11:25:59.690Z,51.87
2024-02-08T11:26:59.813Z,50.79
2024-02-08T11:28:04.322Z,51.26
2024-02-08T11:29:00.762Z,51.34
2024-02-08T11:30:00.224Z,51.39
2024-02-08T11:30:59.776Z,51.42
2024-02-08T11:31:59.730Z,49.63
2024-02-08T11:32:59.777Z,51.03
2024-02-08T11:33:59.796Z,50.08
2024-02-08T11:34:59.815Z,52.71
2024-02-08T11:35:59.773Z,50.40
2024-02-08T11:37:00.300Z,51.68
2024-02-08T11:37:59.766Z,53.13
2024-02-08T11:39:00.377Z,52.83
2024-02-08T11:39:59.948Z,53.19
2024-02-08T11:40:59.945Z,52.53
2024-02-08T11:41:59.955Z,54.17
2024-02-08T11:43:00.116Z,55.84
2024-02-08T11:44:00.083Z,55.05
2024-02-08T11:45:00.167Z,54.19
2024-02-08T11:46:00.210Z,57.33
2024-02-08T11:47:00.239Z,55.22
2024-02-08T11:48:00.354Z,53.97
2024-02-08T11:49:00.414Z,54.33
2024-02-08T11:50:00.778Z,55.09
2024-02-08T11:51:00.487Z,53.93
2024-02-08T11:52:00.487Z,55.54
2024-02-08T11:53:00.934Z,56.36
2024-02-08T11:54:00.606Z,53.86
2024-02-08T11:55:00.739Z,54.85
2024-02-08T11:56:00.702Z,52.95
2024-02-08T11:57:00.774Z,55.02
2024-02-08T11:58:00.856Z,56.18
2024-02-08T11:59:00.878Z,52.26
2024-02-08T12:00:01.213Z,51.45
2024-02-08T12:01:01.125Z,54.22
2024-02-08T12:02:01.116Z,51.42
2024-02-08T12:03:01.144Z,53.89
2024-02-08T12:04:01.276Z,52.66
2024-02-08T12:05:01.932Z,53.51
2024-02-08T12:06:01.282Z,55.48
2024-02-08T12:07:01.467Z,51.41
2024-02-08T12:08:01.430Z,53.03
2024-02-08T12:09:01.523Z,54.30
2024-02-08T12:10:02.047Z,53.87
2024-02-08T12:11:01.599Z,54.37
2024-02-08T12:12:01.683Z,51.09
2024-02-08T12:13:01.817Z,51.44
2024-02-08T12:14:06.877Z,52.23
2024-02-08T12:15:02.780Z,50.25
2024-02-08T12:16:01.848Z,52.50
2024-02-08T12:17:01.822Z,52.03
2024-02-08T12:18:01.859Z,51.82
2024-02-08T12:19:01.939Z,53.79
2024-02-08T12:20:02.586Z,53.92
2024-02-08T12:21:01.931Z,54.29
2024-02-08T12:22:01.825Z,53.12
2024-02-08T12:23:01.822Z,53.62
2024-02-08T12:24:01.843Z,54.34
2024-02-08T12:25:02.238Z,53.88
2024-02-08T12:26:01.964Z,56.87
2024-02-08T12:27:01.960Z,53.91
2024-02-08T12:28:02.113Z,55.32
2024-02-08T12:29:02.089Z,51.76
2024-02-08T12:30:02.130Z,56.21
2024-02-08T12:31:02.265Z,56.06
2024-02-08T12:32:02.235Z,55.41
2024-02-08T12:33:02.494Z,52.40
2024-02-08T12:34:02.489Z,52.67
2024-02-08T12:35:02.763Z,53.61
2024-02-08T12:36:02.486Z,53.94
2024-02-08T12:37:02.612Z,54.94
2024-02-08T12:38:02.584Z,56.03
2024-02-08T12:39:02.614Z,54.73
2024-02-08T12:40:02.712Z,55.33
2024-02-08T12:41:02.715Z,54.46
2024-02-08T12:42:02.780Z,55.01
2024-02-08T12:43:02.952Z,53.26
2024-02-08T12:44:02.893Z,56.90
2024-02-08T12:45:02.966Z,57.72
2024-02-08T12:46:03.092Z,65.14
2024-02-08T12:47:03.073Z,70.11
2024-02-08T12:48:03.157Z,76.35
2024-02-08T12:49:03.232Z,77.74
2024-02-08T12:50:11.700Z,79.18
2024-02-08T12:51:04.172Z,79.24